sensor_id;sensor_type;location;lat;lon;timestamp;pressure;altitude;pressure_sealevel;temperature;humidity
34482;BME280;20720;48.886;9.388;2023-04-07T00:00:46;98426.06;;;10.31;100.00
34482;BME280;20720;48.886;9.388;2023-04-07T00:03:12;98412.91;;;10.72;100.00
34482;BME280;20720;48.886;9.388;2023-04-07T00:05:37;98416.41;;;10.86;100.00
34482;BME280;20720;48.886;9.388;2023-04-07T00:08:02;98415.81;;;10.97;100.00
34482;BME280;20720;48.886;9.388;2023-04-07T00:10:28;98415.56;;;10.79;100.00
34482;BME280;20720;48.886;9.388;2023-04-07T00:12:53;98410.25;;;10.66;100.00
34482;BME280;20720;48.886;9.388;2023-04-07T00:15:18;98406.88;;;10.78;100.00
34482;BME280;20720;48.886;9.388;2023-04-07T00:17:43;98412.63;;;10.54;100.00
34482;BME280;20720;48.886;9.388;2023-04-07T00:20:09;98405.56;;;10.55;100.00
34482;BME280;20720;48.886;9.388;2023-04-07T00:22:34;98397.66;;;10.41;100.00
34482;BME280;20720;48.886;9.388;2023-04-07T00:25:00;98394.34;;;10.20;100.00
34482;BME280;20720;48.886;9.388;2023-04-07T00:27:25;98392.22;;;10.50;100.00
34482;BME280;20720;48.886;9.388;2023-04-07T00:29:50;98397.72;;;10.68;100.00
34482;BME280;20720;48.886;9.388;2023-04-07T00:32:16;98397.16;;;10.79;100.00
34482;BME280;20720;48.886;9.388;2023-04-07T00:34:41;98386.59;;;10.66;100.00
34482;BME280;20720;48.886;9.388;2023-04-07T00:37:06;98385.28;;;10.35;100.00
34482;BME280;20720;48.886;9.388;2023-04-07T00:39:32;98375.72;;;10.69;100.00
34482;BME280;20720;48.886;9.388;2023-04-07T00:41:57;98371.84;;;10.11;100.00
34482;BME280;20720;48.886;9.388;2023-04-07T00:44:22;98370.72;;;10.26;100.00
34482;BME280;20720;48.886;9.388;2023-04-07T00:46:48;98370.53;;;10.28;100.00
34482;BME280;20720;48.886;9.388;2023-04-07T00:49:14;98366.72;;;9.96;100.00
34482;BME280;20720;48.886;9.388;2023-04-07T00:51:41;98358.44;;;9.99;100.00
34482;BME280;20720;48.886;9.388;2023-04-07T00:54:08;98348.28;;;10.17;100.00
34482;BME280;20720;48.886;9.388;2023-04-07T00:56:33;98360.63;;;9.89;100.00
34482;BME280;20720;48.886;9.388;2023-04-07T00:58:58;98357.75;;;9.84;100.00
34482;BME280;20720;48.886;9.388;2023-04-07T01:01:34;98354.75;;;9.87;100.00
34482;BME280;20720;48.886;9.388;2023-04-07T01:04:08;98350.41;;;10.07;100.00
34482;BME280;20720;48.886;9.388;2023-04-07T01:06:38;98348.81;;;10.06;100.00
34482;BME280;20720;48.886;9.388;2023-04-07T01:09:15;98349.59;;;10.07;100.00
34482;BME280;20720;48.886;9.388;2023-04-07T01:11:53;98343.09;;;10.37;100.00
34482;BME280;20720;48.886;9.388;2023-04-07T01:14:23;98328.31;;;10.23;100.00
34482;BME280;20720;48.886;9.388;2023-04-07T01:16:50;98333.06;;;10.06;100.00
34482;BME280;20720;48.886;9.388;2023-04-07T01:21:57;98324.53;;;10.45;100.00
34482;BME280;20720;48.886;9.388;2023-04-07T01:30:06;98310.63;;;10.04;100.00
34482;BME280;20720;48.886;9.388;2023-04-07T01:32:35;98319.47;;;10.43;100.00
34482;BME280;20720;48.886;9.388;2023-04-07T01:35:01;98319.84;;;10.27;100.00
34482;BME280;20720;48.886;9.388;2023-04-07T01:37:29;98317.59;;;10.24;100.00
34482;BME280;20720;48.886;9.388;2023-04-07T01:39:54;98312.66;;;10.75;100.00
34482;BME280;20720;48.886;9.388;2023-04-07T01:42:20;98308.97;;;10.43;100.00
34482;BME280;20720;48.886;9.388;2023-04-07T01:44:47;98302.34;;;10.61;100.00
34482;BME280;20720;48.886;9.388;2023-04-07T01:47:13;98310.78;;;9.89;100.00
34482;BME280;20720;48.886;9.388;2023-04-07T01:49:40;98295.34;;;9.73;100.00
34482;BME280;20720;48.886;9.388;2023-04-07T01:52:06;98291.06;;;10.06;100.00
34482;BME280;20720;48.886;9.388;2023-04-07T01:54:32;98295.75;;;9.70;100.00
34482;BME280;20720;48.886;9.388;2023-04-07T01:56:58;98289.72;;;9.76;100.00
34482;BME280;20720;48.886;9.388;2023-04-07T01:59:24;98284.91;;;9.86;100.00
34482;BME280;20720;48.886;9.388;2023-04-07T02:01:49;98282.69;;;9.83;100.00
34482;BME280;20720;48.886;9.388;2023-04-07T02:04:27;98286.00;;;9.64;100.00
34482;BME280;20720;48.886;9.388;2023-04-07T02:06:58;98293.03;;;9.91;100.00
34482;BME280;20720;48.886;9.388;2023-04-07T02:09:28;98286.69;;;9.73;100.00
34482;BME280;20720;48.886;9.388;2023-04-07T02:11:57;98289.25;;;9.66;100.00
34482;BME280;20720;48.886;9.388;2023-04-07T02:14:24;98284.84;;;9.73;100.00
34482;BME280;20720;48.886;9.388;2023-04-07T02:16:50;98282.94;;;10.01;100.00
34482;BME280;20720;48.886;9.388;2023-04-07T02:19:16;98283.31;;;9.92;100.00
34482;BME280;20720;48.886;9.388;2023-04-07T02:21:42;98278.72;;;10.00;100.00
34482;BME280;20720;48.886;9.388;2023-04-07T02:24:10;98280.88;;;9.90;100.00
34482;BME280;20720;48.886;9.388;2023-04-07T02:26:35;98281.75;;;9.97;100.00
34482;BME280;20720;48.886;9.388;2023-04-07T02:29:02;98281.91;;;10.56;100.00
34482;BME280;20720;48.886;9.388;2023-04-07T02:31:28;98285.16;;;9.98;100.00
34482;BME280;20720;48.886;9.388;2023-04-07T02:33:53;98275.41;;;10.39;100.00
34482;BME280;20720;48.886;9.388;2023-04-07T02:36:18;98273.31;;;10.08;100.00
34482;BME280;20720;48.886;9.388;2023-04-07T02:38:44;98268.28;;;9.66;100.00
34482;BME280;20720;48.886;9.388;2023-04-07T02:41:09;98258.41;;;9.68;100.00
34482;BME280;20720;48.886;9.388;2023-04-07T02:43:34;98256.09;;;9.52;100.00
34482;BME280;20720;48.886;9.388;2023-04-07T02:46:00;98247.44;;;10.05;100.00
34482;BME280;20720;48.886;9.388;2023-04-07T02:48:25;98250.00;;;9.45;100.00
34482;BME280;20720;48.886;9.388;2023-04-07T02:50:50;98246.47;;;9.59;100.00
34482;BME280;20720;48.886;9.388;2023-04-07T02:53:15;98251.72;;;9.66;100.00
34482;BME280;20720;48.886;9.388;2023-04-07T02:55:41;98244.16;;;9.90;100.00
34482;BME280;20720;48.886;9.388;2023-04-07T02:58:06;98250.75;;;9.73;100.00
34482;BME280;20720;48.886;9.388;2023-04-07T03:00:32;98249.69;;;9.61;100.00
34482;BME280;20720;48.886;9.388;2023-04-07T03:02:58;98243.94;;;9.44;100.00
34482;BME280;20720;48.886;9.388;2023-04-07T03:05:23;98239.63;;;9.71;100.00
34482;BME280;20720;48.886;9.388;2023-04-07T03:07:49;98238.84;;;9.71;100.00
34482;BME280;20720;48.886;9.388;2023-04-07T03:10:14;98236.28;;;9.43;100.00
34482;BME280;20720;48.886;9.388;2023-04-07T03:12:39;98241.50;;;9.43;100.00
34482;BME280;20720;48.886;9.388;2023-04-07T03:15:05;98230.38;;;9.75;100.00
34482;BME280;20720;48.886;9.388;2023-04-07T03:17:32;98228.31;;;9.64;100.00
34482;BME280;20720;48.886;9.388;2023-04-07T03:19:57;98226.22;;;10.00;100.00
34482;BME280;20720;48.886;9.388;2023-04-07T03:22:22;98227.31;;;10.12;100.00
34482;BME280;20720;48.886;9.388;2023-04-07T03:24:48;98224.75;;;9.78;100.00
34482;BME280;20720;48.886;9.388;2023-04-07T03:27:13;98224.34;;;9.81;100.00
34482;BME280;20720;48.886;9.388;2023-04-07T03:29:38;98221.44;;;10.10;100.00
34482;BME280;20720;48.886;9.388;2023-04-07T03:32:04;98214.66;;;9.88;100.00
34482;BME280;20720;48.886;9.388;2023-04-07T03:34:29;98213.47;;;9.91;100.00
34482;BME280;20720;48.886;9.388;2023-04-07T03:36:55;98212.50;;;9.98;100.00
34482;BME280;20720;48.886;9.388;2023-04-07T03:39:20;98218.84;;;10.23;100.00
34482;BME280;20720;48.886;9.388;2023-04-07T03:41:45;98213.50;;;9.97;100.00
34482;BME280;20720;48.886;9.388;2023-04-07T03:44:10;98207.84;;;10.07;100.00
34482;BME280;20720;48.886;9.388;2023-04-07T03:46:36;98211.00;;;10.36;100.00
34482;BME280;20720;48.886;9.388;2023-04-07T03:49:01;98211.19;;;10.55;100.00
34482;BME280;20720;48.886;9.388;2023-04-07T03:51:26;98219.03;;;10.22;100.00
34482;BME280;20720;48.886;9.388;2023-04-07T03:53:52;98204.59;;;9.85;100.00
34482;BME280;20720;48.886;9.388;2023-04-07T03:56:17;98208.06;;;10.05;100.00
34482;BME280;20720;48.886;9.388;2023-04-07T03:58:43;98218.44;;;10.26;100.00
34482;BME280;20720;48.886;9.388;2023-04-07T04:01:08;98209.41;;;9.82;100.00
34482;BME280;20720;48.886;9.388;2023-04-07T04:03:34;98220.47;;;10.31;100.00
34482;BME280;20720;48.886;9.388;2023-04-07T04:05:59;98216.00;;;10.12;100.00
34482;BME280;20720;48.886;9.388;2023-04-07T04:08:25;98212.75;;;10.16;100.00
34482;BME280;20720;48.886;9.388;2023-04-07T04:10:51;98213.63;;;10.50;100.00
34482;BME280;20720;48.886;9.388;2023-04-07T04:13:16;98207.84;;;10.07;100.00
34482;BME280;20720;48.886;9.388;2023-04-07T04:15:41;98205.50;;;10.12;100.00
34482;BME280;20720;48.886;9.388;2023-04-07T04:18:07;98208.97;;;10.25;100.00
34482;BME280;20720;48.886;9.388;2023-04-07T04:20:33;98204.09;;;10.35;100.00
34482;BME280;20720;48.886;9.388;2023-04-07T04:22:58;98214.44;;;10.70;100.00
34482;BME280;20720;48.886;9.388;2023-04-07T04:25:23;98210.28;;;10.02;100.00
34482;BME280;20720;48.886;9.388;2023-04-07T04:27:49;98211.78;;;10.43;100.00
34482;BME280;20720;48.886;9.388;2023-04-07T04:30:14;98208.13;;;10.25;100.00
34482;BME280;20720;48.886;9.388;2023-04-07T04:32:40;98201.59;;;10.01;100.00
34482;BME280;20720;48.886;9.388;2023-04-07T04:35:05;98205.69;;;10.10;100.00
34482;BME280;20720;48.886;9.388;2023-04-07T04:37:30;98206.75;;;10.55;100.00
34482;BME280;20720;48.886;9.388;2023-04-07T04:39:56;98203.09;;;10.36;100.00
34482;BME280;20720;48.886;9.388;2023-04-07T04:42:21;98200.38;;;9.97;100.00
34482;BME280;20720;48.886;9.388;2023-04-07T04:44:46;98205.94;;;10.61;100.00
34482;BME280;20720;48.886;9.388;2023-04-07T04:47:12;98201.19;;;9.91;100.00
34482;BME280;20720;48.886;9.388;2023-04-07T04:49:37;98207.69;;;10.08;100.00
34482;BME280;20720;48.886;9.388;2023-04-07T04:52:02;98208.31;;;10.17;100.00
34482;BME280;20720;48.886;9.388;2023-04-07T04:54:27;98206.31;;;10.19;100.00
34482;BME280;20720;48.886;9.388;2023-04-07T04:56:53;98199.78;;;9.95;100.00
34482;BME280;20720;48.886;9.388;2023-04-07T04:59:20;98200.78;;;9.94;100.00
34482;BME280;20720;48.886;9.388;2023-04-07T05:01:46;98202.06;;;10.11;100.00
34482;BME280;20720;48.886;9.388;2023-04-07T05:04:11;98211.03;;;9.83;100.00
34482;BME280;20720;48.886;9.388;2023-04-07T05:06:37;98205.13;;;10.34;100.00
34482;BME280;20720;48.886;9.388;2023-04-07T05:09:02;98213.03;;;9.74;100.00
34482;BME280;20720;48.886;9.388;2023-04-07T05:11:27;98202.69;;;10.53;100.00
34482;BME280;20720;48.886;9.388;2023-04-07T05:13:52;98211.19;;;10.74;100.00
34482;BME280;20720;48.886;9.388;2023-04-07T05:16:18;98209.59;;;10.54;100.00
34482;BME280;20720;48.886;9.388;2023-04-07T05:18:43;98208.38;;;10.50;100.00
34482;BME280;20720;48.886;9.388;2023-04-07T05:21:08;98207.09;;;10.13;100.00
34482;BME280;20720;48.886;9.388;2023-04-07T05:23:34;98201.88;;;10.19;100.00
34482;BME280;20720;48.886;9.388;2023-04-07T05:26:00;98200.50;;;10.63;100.00
34482;BME280;20720;48.886;9.388;2023-04-07T05:28:25;98201.31;;;10.63;100.00
34482;BME280;20720;48.886;9.388;2023-04-07T05:30:51;98203.47;;;10.20;100.00
34482;BME280;20720;48.886;9.388;2023-04-07T05:33:16;98203.31;;;10.48;100.00
34482;BME280;20720;48.886;9.388;2023-04-07T05:35:44;98203.91;;;10.70;100.00
34482;BME280;20720;48.886;9.388;2023-04-07T05:38:10;98212.00;;;10.81;100.00
34482;BME280;20720;48.886;9.388;2023-04-07T05:40:35;98208.19;;;10.58;100.00
34482;BME280;20720;48.886;9.388;2023-04-07T05:43:01;98202.69;;;10.66;100.00
34482;BME280;20720;48.886;9.388;2023-04-07T05:45:26;98204.34;;;10.54;100.00
34482;BME280;20720;48.886;9.388;2023-04-07T05:47:51;98206.94;;;10.34;100.00
34482;BME280;20720;48.886;9.388;2023-04-07T05:50:17;98206.34;;;10.97;100.00
34482;BME280;20720;48.886;9.388;2023-04-07T05:52:42;98204.31;;;10.99;100.00
34482;BME280;20720;48.886;9.388;2023-04-07T05:55:08;98213.22;;;10.92;100.00
34482;BME280;20720;48.886;9.388;2023-04-07T05:57:33;98211.59;;;10.71;100.00
34482;BME280;20720;48.886;9.388;2023-04-07T05:59:59;98210.19;;;10.43;100.00
34482;BME280;20720;48.886;9.388;2023-04-07T06:02:24;98211.78;;;10.30;100.00
34482;BME280;20720;48.886;9.388;2023-04-07T06:04:50;98217.56;;;10.06;100.00
34482;BME280;20720;48.886;9.388;2023-04-07T06:07:15;98216.41;;;10.28;100.00
34482;BME280;20720;48.886;9.388;2023-04-07T06:09:41;98211.56;;;10.19;100.00
34482;BME280;20720;48.886;9.388;2023-04-07T06:12:07;98210.38;;;10.61;100.00
34482;BME280;20720;48.886;9.388;2023-04-07T06:14:33;98208.38;;;10.50;100.00
34482;BME280;20720;48.886;9.388;2023-04-07T06:16:58;98211.00;;;10.76;100.00
34482;BME280;20720;48.886;9.388;2023-04-07T06:19:24;98215.66;;;10.61;100.00
34482;BME280;20720;48.886;9.388;2023-04-07T06:21:51;98217.44;;;10.47;100.00
34482;BME280;20720;48.886;9.388;2023-04-07T06:24:16;98217.06;;;10.57;100.00
34482;BME280;20720;48.886;9.388;2023-04-07T06:26:43;98219.06;;;11.07;100.00
34482;BME280;20720;48.886;9.388;2023-04-07T06:29:08;98222.06;;;11.17;100.00
34482;BME280;20720;48.886;9.388;2023-04-07T06:31:34;98221.28;;;10.38;100.00
34482;BME280;20720;48.886;9.388;2023-04-07T06:33:59;98217.69;;;10.65;100.00
34482;BME280;20720;48.886;9.388;2023-04-07T06:36:24;98214.41;;;11.09;100.00
34482;BME280;20720;48.886;9.388;2023-04-07T06:38:51;98224.22;;;11.66;100.00
34482;BME280;20720;48.886;9.388;2023-04-07T06:41:16;98213.59;;;11.02;100.00
34482;BME280;20720;48.886;9.388;2023-04-07T06:43:47;98224.88;;;11.35;100.00
34482;BME280;20720;48.886;9.388;2023-04-07T06:46:13;98224.31;;;10.81;100.00
34482;BME280;20720;48.886;9.388;2023-04-07T06:48:38;98222.97;;;11.55;100.00
34482;BME280;20720;48.886;9.388;2023-04-07T06:51:03;98218.59;;;11.36;100.00
34482;BME280;20720;48.886;9.388;2023-04-07T06:53:28;98215.53;;;11.46;100.00
34482;BME280;20720;48.886;9.388;2023-04-07T06:56:07;98210.75;;;11.10;100.00
34482;BME280;20720;48.886;9.388;2023-04-07T06:58:33;98208.63;;;11.51;100.00
34482;BME280;20720;48.886;9.388;2023-04-07T07:00:59;98209.56;;;11.76;100.00
34482;BME280;20720;48.886;9.388;2023-04-07T07:03:25;98207.97;;;11.62;100.00
34482;BME280;20720;48.886;9.388;2023-04-07T07:05:53;98214.09;;;11.50;100.00
34482;BME280;20720;48.886;9.388;2023-04-07T07:08:18;98208.44;;;11.46;100.00
34482;BME280;20720;48.886;9.388;2023-04-07T07:10:43;98204.97;;;11.65;100.00
34482;BME280;20720;48.886;9.388;2023-04-07T07:13:09;98211.44;;;11.69;100.00
34482;BME280;20720;48.886;9.388;2023-04-07T07:15:34;98208.97;;;11.74;100.00
34482;BME280;20720;48.886;9.388;2023-04-07T07:17:59;98208.28;;;11.92;100.00
34482;BME280;20720;48.886;9.388;2023-04-07T07:20:24;98216.34;;;12.35;100.00
34482;BME280;20720;48.886;9.388;2023-04-07T07:22:50;98210.56;;;13.00;100.00
34482;BME280;20720;48.886;9.388;2023-04-07T07:25:15;98210.94;;;12.54;100.00
34482;BME280;20720;48.886;9.388;2023-04-07T07:27:40;98220.88;;;12.21;100.00
34482;BME280;20720;48.886;9.388;2023-04-07T07:30:06;98215.13;;;12.37;100.00
34482;BME280;20720;48.886;9.388;2023-04-07T07:32:32;98221.97;;;12.69;100.00
34482;BME280;20720;48.886;9.388;2023-04-07T07:34:57;98220.03;;;12.83;100.00
34482;BME280;20720;48.886;9.388;2023-04-07T07:37:23;98216.00;;;12.56;100.00
34482;BME280;20720;48.886;9.388;2023-04-07T07:39:48;98214.28;;;12.68;100.00
34482;BME280;20720;48.886;9.388;2023-04-07T07:42:13;98217.78;;;13.11;100.00
34482;BME280;20720;48.886;9.388;2023-04-07T07:44:39;98216.19;;;13.46;100.00
34482;BME280;20720;48.886;9.388;2023-04-07T07:47:05;98218.09;;;13.75;100.00
34482;BME280;20720;48.886;9.388;2023-04-07T07:49:31;98224.13;;;13.28;100.00
34482;BME280;20720;48.886;9.388;2023-04-07T07:51:56;98229.16;;;14.02;100.00
34482;BME280;20720;48.886;9.388;2023-04-07T07:54:23;98226.56;;;14.25;100.00
34482;BME280;20720;48.886;9.388;2023-04-07T07:56:49;98233.56;;;14.19;100.00
34482;BME280;20720;48.886;9.388;2023-04-07T07:59:14;98236.66;;;14.76;97.82
34482;BME280;20720;48.886;9.388;2023-04-07T08:01:39;98239.31;;;14.99;92.60
34482;BME280;20720;48.886;9.388;2023-04-07T08:04:05;98241.63;;;15.07;95.66
34482;BME280;20720;48.886;9.388;2023-04-07T08:06:30;98246.44;;;12.20;100.00
34482;BME280;20720;48.886;9.388;2023-04-07T08:08:55;98244.63;;;11.64;100.00
34482;BME280;20720;48.886;9.388;2023-04-07T08:11:21;98236.81;;;12.01;100.00
34482;BME280;20720;48.886;9.388;2023-04-07T08:13:47;98230.84;;;13.96;100.00
34482;BME280;20720;48.886;9.388;2023-04-07T08:16:12;98232.09;;;14.24;100.00
34482;BME280;20720;48.886;9.388;2023-04-07T08:18:37;98241.50;;;15.60;92.23
34482;BME280;20720;48.886;9.388;2023-04-07T08:21:04;98243.94;;;15.50;92.11
34482;BME280;20720;48.886;9.388;2023-04-07T08:23:29;98240.78;;;15.76;93.75
34482;BME280;20720;48.886;9.388;2023-04-07T08:25:55;98241.22;;;14.28;96.16
34482;BME280;20720;48.886;9.388;2023-04-07T08:28:20;98251.41;;;14.54;97.03
34482;BME280;20720;48.886;9.388;2023-04-07T08:30:47;98241.16;;;15.10;94.10
34482;BME280;20720;48.886;9.388;2023-04-07T08:33:12;98245.81;;;14.62;91.15
34482;BME280;20720;48.886;9.388;2023-04-07T08:35:38;98251.41;;;17.05;81.23
34482;BME280;20720;48.886;9.388;2023-04-07T08:38:03;98251.59;;;14.93;93.89
34482;BME280;20720;48.886;9.388;2023-04-07T08:40:29;98253.75;;;14.62;90.18
34482;BME280;20720;48.886;9.388;2023-04-07T08:42:55;98254.28;;;14.52;90.65
34482;BME280;20720;48.886;9.388;2023-04-07T08:45:23;98261.13;;;14.71;91.15
34482;BME280;20720;48.886;9.388;2023-04-07T08:47:53;98261.84;;;16.95;73.56
34482;BME280;20720;48.886;9.388;2023-04-07T08:50:19;98266.25;;;17.77;72.12
34482;BME280;20720;48.886;9.388;2023-04-07T08:52:51;98265.78;;;17.80;70.44
34482;BME280;20720;48.886;9.388;2023-04-07T08:55:17;98268.91;;;18.42;68.00
34482;BME280;20720;48.886;9.388;2023-04-07T08:57:42;98271.03;;;18.67;67.52
34482;BME280;20720;48.886;9.388;2023-04-07T09:00:09;98275.56;;;16.59;77.01
34482;BME280;20720;48.886;9.388;2023-04-07T09:02:36;98279.03;;;17.59;72.45
34482;BME280;20720;48.886;9.388;2023-04-07T09:05:03;98280.94;;;17.47;71.37
34482;BME280;20720;48.886;9.388;2023-04-07T09:07:31;98283.78;;;17.95;72.86
34482;BME280;20720;48.886;9.388;2023-04-07T09:09:57;98287.66;;;17.88;69.83
34482;BME280;20720;48.886;9.388;2023-04-07T09:12:23;98282.16;;;16.05;76.31
34482;BME280;20720;48.886;9.388;2023-04-07T09:14:49;98285.25;;;17.48;73.55
34482;BME280;20720;48.886;9.388;2023-04-07T09:17:14;98289.44;;;17.82;71.30
34482;BME280;20720;48.886;9.388;2023-04-07T09:19:39;98291.81;;;17.78;72.08
34482;BME280;20720;48.886;9.388;2023-04-07T09:22:05;98289.34;;;17.39;66.72
34482;BME280;20720;48.886;9.388;2023-04-07T09:24:30;98287.63;;;15.98;72.91
34482;BME280;20720;48.886;9.388;2023-04-07T09:27:12;98294.09;;;15.33;78.33
34482;BME280;20720;48.886;9.388;2023-04-07T09:29:40;98279.38;;;17.29;71.62
34482;BME280;20720;48.886;9.388;2023-04-07T09:32:06;98287.34;;;16.12;78.26
34482;BME280;20720;48.886;9.388;2023-04-07T09:34:34;98292.06;;;15.47;80.92
34482;BME280;20720;48.886;9.388;2023-04-07T09:37:01;98291.34;;;14.34;84.97
34482;BME280;20720;48.886;9.388;2023-04-07T09:39:27;98289.75;;;17.14;77.37
34482;BME280;20720;48.886;9.388;2023-04-07T09:41:52;98295.59;;;18.26;69.79
34482;BME280;20720;48.886;9.388;2023-04-07T09:44:19;98294.81;;;17.16;67.52
34482;BME280;20720;48.886;9.388;2023-04-07T09:49:17;98292.66;;;17.13;73.74
34482;BME280;20720;48.886;9.388;2023-04-07T09:51:57;98300.97;;;14.10;88.60
34482;BME280;20720;48.886;9.388;2023-04-07T09:56:58;98295.84;;;15.74;77.92
34482;BME280;20720;48.886;9.388;2023-04-07T09:59:25;98298.16;;;16.22;82.34
34482;BME280;20720;48.886;9.388;2023-04-07T10:01:52;98299.72;;;17.95;74.80
34482;BME280;20720;48.886;9.388;2023-04-07T10:04:18;98296.38;;;18.26;68.05
34482;BME280;20720;48.886;9.388;2023-04-07T10:06:44;98294.81;;;15.40;79.69
34482;BME280;20720;48.886;9.388;2023-04-07T10:09:12;98301.38;;;17.79;74.00
34482;BME280;20720;48.886;9.388;2023-04-07T10:11:38;98295.88;;;18.77;68.98
34482;BME280;20720;48.886;9.388;2023-04-07T10:14:04;98301.91;;;19.63;63.98
34482;BME280;20720;48.886;9.388;2023-04-07T10:16:30;98296.94;;;19.77;63.37
34482;BME280;20720;48.886;9.388;2023-04-07T10:18:56;98295.28;;;17.46;67.09
34482;BME280;20720;48.886;9.388;2023-04-07T10:21:22;98300.09;;;18.04;70.38
34482;BME280;20720;48.886;9.388;2023-04-07T10:23:55;98290.84;;;19.39;64.63
34482;BME280;20720;48.886;9.388;2023-04-07T10:26:26;98288.94;;;19.82;62.13
34482;BME280;20720;48.886;9.388;2023-04-07T10:28:58;98288.22;;;18.54;62.96
34482;BME280;20720;48.886;9.388;2023-04-07T10:31:25;98293.91;;;16.77;69.63
34482;BME280;20720;48.886;9.388;2023-04-07T10:33:51;98296.91;;;17.30;72.74
34482;BME280;20720;48.886;9.388;2023-04-07T10:36:18;98292.25;;;17.04;72.97
34482;BME280;20720;48.886;9.388;2023-04-07T10:41:42;98289.94;;;18.01;70.93
34482;BME280;20720;48.886;9.388;2023-04-07T10:44:09;98281.50;;;16.38;73.96
34482;BME280;20720;48.886;9.388;2023-04-07T10:49:10;98288.03;;;16.75;71.40
34482;BME280;20720;48.886;9.388;2023-04-07T10:51:36;98287.56;;;17.11;72.50
34482;BME280;20720;48.886;9.388;2023-04-07T10:54:20;98280.00;;;17.36;75.39
34482;BME280;20720;48.886;9.388;2023-04-07T10:59:30;98276.72;;;19.07;66.78
34482;BME280;20720;48.886;9.388;2023-04-07T11:04:41;98284.06;;;17.99;67.80
34482;BME280;20720;48.886;9.388;2023-04-07T11:07:08;98283.03;;;18.21;66.27
34482;BME280;20720;48.886;9.388;2023-04-07T11:09:34;98277.06;;;18.89;63.72
34482;BME280;20720;48.886;9.388;2023-04-07T11:11:59;98281.22;;;17.83;65.90
34482;BME280;20720;48.886;9.388;2023-04-07T11:14:29;98271.44;;;19.17;62.13
34482;BME280;20720;48.886;9.388;2023-04-07T11:16:55;98277.75;;;15.36;76.75
34482;BME280;20720;48.886;9.388;2023-04-07T11:19:21;98280.84;;;15.91;77.05
34482;BME280;20720;48.886;9.388;2023-04-07T11:21:49;98269.34;;;15.85;74.62
34482;BME280;20720;48.886;9.388;2023-04-07T11:24:34;98274.69;;;17.69;70.95
34482;BME280;20720;48.886;9.388;2023-04-07T11:27:02;98267.72;;;18.33;65.61
34482;BME280;20720;48.886;9.388;2023-04-07T11:29:29;98266.56;;;17.26;68.98
34482;BME280;20720;48.886;9.388;2023-04-07T11:31:57;98261.66;;;19.64;62.70
34482;BME280;20720;48.886;9.388;2023-04-07T11:34:28;98266.59;;;20.70;58.90
34482;BME280;20720;48.886;9.388;2023-04-07T11:36:54;98276.00;;;20.10;61.21
34482;BME280;20720;48.886;9.388;2023-04-07T11:39:23;98277.22;;;19.78;62.66
34482;BME280;20720;48.886;9.388;2023-04-07T11:41:52;98266.28;;;22.89;51.32
34482;BME280;20720;48.886;9.388;2023-04-07T11:44:17;98273.75;;;17.80;59.07
34482;BME280;20720;48.886;9.388;2023-04-07T11:46:54;98273.19;;;18.22;63.50
34482;BME280;20720;48.886;9.388;2023-04-07T11:49:20;98269.59;;;19.18;62.96
34482;BME280;20720;48.886;9.388;2023-04-07T11:51:45;98274.13;;;21.03;55.53
34482;BME280;20720;48.886;9.388;2023-04-07T11:54:11;98270.69;;;18.37;61.81
34482;BME280;20720;48.886;9.388;2023-04-07T11:56:44;98272.91;;;16.75;68.75
34482;BME280;20720;48.886;9.388;2023-04-07T11:59:18;98268.03;;;19.22;63.05
34482;BME280;20720;48.886;9.388;2023-04-07T12:01:45;98264.19;;;19.39;61.26
34482;BME280;20720;48.886;9.388;2023-04-07T12:04:12;98274.69;;;17.69;69.36
34482;BME280;20720;48.886;9.388;2023-04-07T12:06:40;98268.28;;;15.86;72.98
34482;BME280;20720;48.886;9.388;2023-04-07T12:09:08;98275.25;;;16.44;71.94
34482;BME280;20720;48.886;9.388;2023-04-07T12:11:34;98271.28;;;16.18;70.38
34482;BME280;20720;48.886;9.388;2023-04-07T12:14:00;98263.41;;;16.07;72.60
34482;BME280;20720;48.886;9.388;2023-04-07T12:16:29;98266.41;;;15.98;72.41
34482;BME280;20720;48.886;9.388;2023-04-07T12:18:54;98275.28;;;17.05;70.69
34482;BME280;20720;48.886;9.388;2023-04-07T12:21:19;98269.78;;;15.82;73.88
34482;BME280;20720;48.886;9.388;2023-04-07T12:23:46;98279.69;;;17.88;70.36
34482;BME280;20720;48.886;9.388;2023-04-07T12:26:12;98284.06;;;18.42;65.51
34482;BME280;20720;48.886;9.388;2023-04-07T12:28:37;98281.16;;;18.43;65.77
34482;BME280;20720;48.886;9.388;2023-04-07T12:31:03;98281.44;;;19.00;64.82
34482;BME280;20720;48.886;9.388;2023-04-07T12:33:29;98282.22;;;18.69;64.43
34482;BME280;20720;48.886;9.388;2023-04-07T12:35:54;98285.31;;;17.36;67.57
34482;BME280;20720;48.886;9.388;2023-04-07T12:38:19;98287.78;;;18.41;65.23
34482;BME280;20720;48.886;9.388;2023-04-07T12:40:45;98281.56;;;18.84;63.98
34482;BME280;20720;48.886;9.388;2023-04-07T12:43:10;98283.63;;;19.08;63.58
34482;BME280;20720;48.886;9.388;2023-04-07T12:45:35;98288.09;;;18.98;63.25
34482;BME280;20720;48.886;9.388;2023-04-07T12:48:01;98281.50;;;18.73;63.04
34482;BME280;20720;48.886;9.388;2023-04-07T12:50:26;98294.22;;;18.45;64.72
34482;BME280;20720;48.886;9.388;2023-04-07T12:52:53;98295.06;;;17.85;72.49
34482;BME280;20720;48.886;9.388;2023-04-07T12:55:19;98299.28;;;17.81;76.63
34482;BME280;20720;48.886;9.388;2023-04-07T12:57:44;98295.97;;;17.03;80.53
34482;BME280;20720;48.886;9.388;2023-04-07T13:00:12;98293.69;;;17.12;83.93
34482;BME280;20720;48.886;9.388;2023-04-07T13:02:38;98291.84;;;16.11;92.09
34482;BME280;20720;48.886;9.388;2023-04-07T13:05:04;98298.75;;;15.49;100.00
34482;BME280;20720;48.886;9.388;2023-04-07T13:07:30;98298.13;;;14.30;100.00
34482;BME280;20720;48.886;9.388;2023-04-07T13:09:55;98295.75;;;14.22;100.00
34482;BME280;20720;48.886;9.388;2023-04-07T13:12:21;98284.84;;;14.78;100.00
34482;BME280;20720;48.886;9.388;2023-04-07T13:14:47;98276.78;;;16.00;100.00